sensor_id;sensor_type;location;lat;lon;timestamp;P1;durP1;ratioP1;P2;durP2;ratioP2
55559;SDS011;41414;53.250;6.514;2022-11-20T00:01:54;32.03;;;20.40;;
55559;SDS011;41414;53.250;6.514;2022-11-20T00:04:20;36.28;;;21.58;;
55559;SDS011;41414;53.250;6.514;2022-11-20T00:06:47;35.90;;;20.95;;
55559;SDS011;41414;53.250;6.514;2022-11-20T00:09:13;32.22;;;19.52;;
55559;SDS011;41414;53.250;6.514;2022-11-20T00:11:39;30.20;;;19.88;;
55559;SDS011;41414;53.250;6.514;2022-11-20T00:14:05;33.00;;;19.27;;
55559;SDS011;41414;53.250;6.514;2022-11-20T00:16:31;32.05;;;20.00;;
55559;SDS011;41414;53.250;6.514;2022-11-20T00:18:58;27.52;;;18.75;;
55559;SDS011;41414;53.250;6.514;2022-11-20T00:21:25;31.45;;;19.25;;
55559;SDS011;41414;53.250;6.514;2022-11-20T00:23:53;29.27;;;19.08;;
55559;SDS011;41414;53.250;6.514;2022-11-20T00:26:20;26.42;;;18.10;;
55559;SDS011;41414;53.250;6.514;2022-11-20T00:28:50;30.88;;;18.10;;
55559;SDS011;41414;53.250;6.514;2022-11-20T00:31:17;28.05;;;18.42;;
55559;SDS011;41414;53.250;6.514;2022-11-20T00:33:43;29.10;;;18.77;;
55559;SDS011;41414;53.250;6.514;2022-11-20T00:36:11;30.50;;;19.25;;
55559;SDS011;41414;53.250;6.514;2022-11-20T00:38:38;29.25;;;18.13;;
55559;SDS011;41414;53.250;6.514;2022-11-20T00:41:05;32.92;;;19.75;;
55559;SDS011;41414;53.250;6.514;2022-11-20T00:43:32;28.70;;;19.33;;
55559;SDS011;41414;53.250;6.514;2022-11-20T00:45:58;31.92;;;20.15;;
55559;SDS011;41414;53.250;6.514;2022-11-20T00:48:25;30.27;;;20.55;;
55559;SDS011;41414;53.250;6.514;2022-11-20T00:50:51;32.90;;;21.20;;
55559;SDS011;41414;53.250;6.514;2022-11-20T00:53:18;30.92;;;20.38;;
55559;SDS011;41414;53.250;6.514;2022-11-20T00:55:57;34.03;;;21.75;;
55559;SDS011;41414;53.250;6.514;2022-11-20T00:58:24;32.97;;;20.75;;
55559;SDS011;41414;53.250;6.514;2022-11-20T01:00:50;31.92;;;19.52;;
55559;SDS011;41414;53.250;6.514;2022-11-20T01:03:17;29.25;;;18.38;;
55559;SDS011;41414;53.250;6.514;2022-11-20T01:05:43;27.45;;;18.50;;
55559;SDS011;41414;53.250;6.514;2022-11-20T01:08:10;30.13;;;18.10;;
55559;SDS011;41414;53.250;6.514;2022-11-20T01:10:36;28.00;;;17.65;;
55559;SDS011;41414;53.250;6.514;2022-11-20T01:13:02;30.10;;;18.05;;
55559;SDS011;41414;53.250;6.514;2022-11-20T01:15:47;27.88;;;16.42;;
55559;SDS011;41414;53.250;6.514;2022-11-20T01:18:13;28.23;;;17.30;;
55559;SDS011;41414;53.250;6.514;2022-11-20T01:20:39;26.85;;;17.13;;
55559;SDS011;41414;53.250;6.514;2022-11-20T01:23:05;27.40;;;17.80;;
55559;SDS011;41414;53.250;6.514;2022-11-20T01:25:31;25.33;;;16.38;;
55559;SDS011;41414;53.250;6.514;2022-11-20T01:27:57;25.15;;;16.80;;
55559;SDS011;41414;53.250;6.514;2022-11-20T01:30:24;27.25;;;16.40;;
55559;SDS011;41414;53.250;6.514;2022-11-20T01:32:50;28.05;;;17.60;;
55559;SDS011;41414;53.250;6.514;2022-11-20T01:35:16;28.20;;;17.75;;
55559;SDS011;41414;53.250;6.514;2022-11-20T01:37:42;30.15;;;17.70;;
55559;SDS011;41414;53.250;6.514;2022-11-20T01:40:08;33.10;;;17.70;;
55559;SDS011;41414;53.250;6.514;2022-11-20T01:42:35;27.30;;;17.65;;
55559;SDS011;41414;53.250;6.514;2022-11-20T01:48:05;28.92;;;18.05;;
55559;SDS011;41414;53.250;6.514;2022-11-20T01:50:31;29.33;;;17.95;;
55559;SDS011;41414;53.250;6.514;2022-11-20T01:53:05;29.88;;;19.13;;
55559;SDS011;41414;53.250;6.514;2022-11-20T01:55:36;29.15;;;17.40;;
55559;SDS011;41414;53.250;6.514;2022-11-20T01:58:03;27.70;;;17.85;;
55559;SDS011;41414;53.250;6.514;2022-11-20T02:00:29;28.52;;;17.88;;
55559;SDS011;41414;53.250;6.514;2022-11-20T02:02:57;29.70;;;19.02;;
55559;SDS011;41414;53.250;6.514;2022-11-20T02:05:27;27.92;;;17.15;;
55559;SDS011;41414;53.250;6.514;2022-11-20T02:07:54;29.60;;;17.58;;
55559;SDS011;41414;53.250;6.514;2022-11-20T02:10:21;26.20;;;16.20;;
55559;SDS011;41414;53.250;6.514;2022-11-20T02:12:47;27.70;;;16.85;;
55559;SDS011;41414;53.250;6.514;2022-11-20T02:15:32;28.02;;;16.70;;
55559;SDS011;41414;53.250;6.514;2022-11-20T02:17:59;25.30;;;16.73;;
55559;SDS011;41414;53.250;6.514;2022-11-20T02:20:25;29.92;;;19.08;;
55559;SDS011;41414;53.250;6.514;2022-11-20T02:22:54;29.67;;;17.30;;
55559;SDS011;41414;53.250;6.514;2022-11-20T02:25:21;29.33;;;17.00;;
55559;SDS011;41414;53.250;6.514;2022-11-20T02:27:49;29.77;;;17.60;;
55559;SDS011;41414;53.250;6.514;2022-11-20T02:30:16;26.88;;;17.48;;
55559;SDS011;41414;53.250;6.514;2022-11-20T02:32:42;28.90;;;17.40;;
55559;SDS011;41414;53.250;6.514;2022-11-20T02:35:09;31.80;;;18.50;;
55559;SDS011;41414;53.250;6.514;2022-11-20T02:37:37;29.83;;;18.15;;
55559;SDS011;41414;53.250;6.514;2022-11-20T02:40:04;28.60;;;17.15;;
55559;SDS011;41414;53.250;6.514;2022-11-20T02:42:30;29.55;;;18.25;;
55559;SDS011;41414;53.250;6.514;2022-11-20T02:44:56;29.20;;;17.58;;
55559;SDS011;41414;53.250;6.514;2022-11-20T02:47:22;31.33;;;18.65;;
55559;SDS011;41414;53.250;6.514;2022-11-20T02:49:48;26.40;;;16.70;;
55559;SDS011;41414;53.250;6.514;2022-11-20T02:52:14;29.25;;;18.33;;
55559;SDS011;41414;53.250;6.514;2022-11-20T02:54:41;28.35;;;18.05;;
55559;SDS011;41414;53.250;6.514;2022-11-20T02:57:07;26.75;;;16.55;;
55559;SDS011;41414;53.250;6.514;2022-11-20T02:59:33;27.27;;;16.48;;
55559;SDS011;41414;53.250;6.514;2022-11-20T03:02:00;29.38;;;17.25;;
55559;SDS011;41414;53.250;6.514;2022-11-20T03:04:26;30.25;;;17.77;;
55559;SDS011;41414;53.250;6.514;2022-11-20T03:06:52;29.60;;;17.40;;
55559;SDS011;41414;53.250;6.514;2022-11-20T03:09:18;28.05;;;18.30;;
55559;SDS011;41414;53.250;6.514;2022-11-20T03:11:44;28.30;;;17.58;;
55559;SDS011;41414;53.250;6.514;2022-11-20T03:14:10;25.38;;;16.40;;
55559;SDS011;41414;53.250;6.514;2022-11-20T03:16:36;31.50;;;17.58;;
55559;SDS011;41414;53.250;6.514;2022-11-20T03:19:03;27.48;;;17.35;;
55559;SDS011;41414;53.250;6.514;2022-11-20T03:21:29;29.58;;;16.88;;
55559;SDS011;41414;53.250;6.514;2022-11-20T03:23:55;29.02;;;17.23;;
55559;SDS011;41414;53.250;6.514;2022-11-20T03:26:23;29.80;;;18.08;;
55559;SDS011;41414;53.250;6.514;2022-11-20T03:28:52;29.75;;;16.92;;
55559;SDS011;41414;53.250;6.514;2022-11-20T03:31:19;26.58;;;16.80;;
55559;SDS011;41414;53.250;6.514;2022-11-20T03:33:45;26.65;;;17.02;;
55559;SDS011;41414;53.250;6.514;2022-11-20T03:36:13;30.88;;;17.75;;
55559;SDS011;41414;53.250;6.514;2022-11-20T03:38:40;24.48;;;15.30;;
55559;SDS011;41414;53.250;6.514;2022-11-20T03:41:08;27.02;;;16.55;;
55559;SDS011;41414;53.250;6.514;2022-11-20T03:43:34;26.45;;;16.63;;
55559;SDS011;41414;53.250;6.514;2022-11-20T03:46:00;24.60;;;15.98;;
55559;SDS011;41414;53.250;6.514;2022-11-20T03:48:27;28.05;;;17.23;;
55559;SDS011;41414;53.250;6.514;2022-11-20T03:50:53;29.65;;;17.08;;
55559;SDS011;41414;53.250;6.514;2022-11-20T03:53:32;28.58;;;17.10;;
55559;SDS011;41414;53.250;6.514;2022-11-20T03:55:58;24.55;;;15.38;;
55559;SDS011;41414;53.250;6.514;2022-11-20T03:58:24;27.73;;;16.05;;
55559;SDS011;41414;53.250;6.514;2022-11-20T04:00:50;27.58;;;16.63;;
55559;SDS011;41414;53.250;6.514;2022-11-20T04:03:16;24.95;;;15.10;;
55559;SDS011;41414;53.250;6.514;2022-11-20T04:05:43;26.23;;;15.68;;
55559;SDS011;41414;53.250;6.514;2022-11-20T04:08:09;26.25;;;15.75;;
55559;SDS011;41414;53.250;6.514;2022-11-20T04:10:35;26.00;;;16.00;;
55559;SDS011;41414;53.250;6.514;2022-11-20T04:13:01;23.75;;;14.82;;
55559;SDS011;41414;53.250;6.514;2022-11-20T04:15:27;26.95;;;15.88;;
55559;SDS011;41414;53.250;6.514;2022-11-20T04:17:53;24.60;;;15.73;;
55559;SDS011;41414;53.250;6.514;2022-11-20T04:20:20;23.65;;;15.27;;
55559;SDS011;41414;53.250;6.514;2022-11-20T04:22:46;22.48;;;14.15;;
55559;SDS011;41414;53.250;6.514;2022-11-20T04:25:12;24.15;;;15.95;;
55559;SDS011;41414;53.250;6.514;2022-11-20T04:27:38;25.23;;;15.50;;
55559;SDS011;41414;53.250;6.514;2022-11-20T04:30:05;21.10;;;14.25;;
55559;SDS011;41414;53.250;6.514;2022-11-20T04:32:31;21.23;;;13.27;;
55559;SDS011;41414;53.250;6.514;2022-11-20T04:34:57;22.75;;;14.23;;
55559;SDS011;41414;53.250;6.514;2022-11-20T04:37:23;24.15;;;14.18;;
55559;SDS011;41414;53.250;6.514;2022-11-20T04:39:50;23.73;;;13.68;;
55559;SDS011;41414;53.250;6.514;2022-11-20T04:42:16;23.67;;;14.43;;
55559;SDS011;41414;53.250;6.514;2022-11-20T04:44:54;22.73;;;13.30;;
55559;SDS011;41414;53.250;6.514;2022-11-20T04:47:21;21.77;;;13.73;;
55559;SDS011;41414;53.250;6.514;2022-11-20T04:49:47;22.60;;;14.73;;
55559;SDS011;41414;53.250;6.514;2022-11-20T04:52:13;18.42;;;12.18;;
55559;SDS011;41414;53.250;6.514;2022-11-20T04:54:39;22.70;;;12.95;;
55559;SDS011;41414;53.250;6.514;2022-11-20T04:57:05;19.77;;;13.23;;
55559;SDS011;41414;53.250;6.514;2022-11-20T04:59:32;24.17;;;13.68;;
55559;SDS011;41414;53.250;6.514;2022-11-20T05:01:58;21.42;;;13.20;;
55559;SDS011;41414;53.250;6.514;2022-11-20T05:04:24;21.52;;;12.65;;
55559;SDS011;41414;53.250;6.514;2022-11-20T05:06:50;19.83;;;13.60;;
55559;SDS011;41414;53.250;6.514;2022-11-20T05:09:16;21.20;;;12.35;;
55559;SDS011;41414;53.250;6.514;2022-11-20T05:11:42;22.40;;;13.75;;
55559;SDS011;41414;53.250;6.514;2022-11-20T05:14:08;23.42;;;14.93;;
55559;SDS011;41414;53.250;6.514;2022-11-20T05:16:35;20.48;;;12.88;;
55559;SDS011;41414;53.250;6.514;2022-11-20T05:19:01;22.08;;;13.90;;
55559;SDS011;41414;53.250;6.514;2022-11-20T05:21:29;23.35;;;13.65;;
55559;SDS011;41414;53.250;6.514;2022-11-20T05:23:55;21.90;;;13.77;;
55559;SDS011;41414;53.250;6.514;2022-11-20T05:26:21;22.50;;;14.43;;
55559;SDS011;41414;53.250;6.514;2022-11-20T05:28:48;21.20;;;13.65;;
55559;SDS011;41414;53.250;6.514;2022-11-20T05:31:16;21.92;;;13.73;;
55559;SDS011;41414;53.250;6.514;2022-11-20T05:33:42;24.55;;;14.82;;
55559;SDS011;41414;53.250;6.514;2022-11-20T05:36:10;22.85;;;14.15;;
55559;SDS011;41414;53.250;6.514;2022-11-20T05:38:36;23.88;;;14.80;;
55559;SDS011;41414;53.250;6.514;2022-11-20T05:41:06;24.83;;;14.98;;
55559;SDS011;41414;53.250;6.514;2022-11-20T05:43:33;26.60;;;15.07;;
55559;SDS011;41414;53.250;6.514;2022-11-20T05:46:00;21.60;;;13.00;;
55559;SDS011;41414;53.250;6.514;2022-11-20T05:48:26;25.75;;;15.48;;
55559;SDS011;41414;53.250;6.514;2022-11-20T05:50:52;24.20;;;15.23;;
55559;SDS011;41414;53.250;6.514;2022-11-20T05:53:19;25.45;;;14.95;;
55559;SDS011;41414;53.250;6.514;2022-11-20T05:55:45;22.95;;;14.23;;
55559;SDS011;41414;53.250;6.514;2022-11-20T05:58:11;24.52;;;14.15;;
55559;SDS011;41414;53.250;6.514;2022-11-20T06:00:37;22.10;;;13.75;;
55559;SDS011;41414;53.250;6.514;2022-11-20T06:03:03;21.33;;;14.65;;
55559;SDS011;41414;53.250;6.514;2022-11-20T06:05:29;21.40;;;13.88;;
55559;SDS011;41414;53.250;6.514;2022-11-20T06:07:56;23.30;;;13.98;;
55559;SDS011;41414;53.250;6.514;2022-11-20T06:10:22;23.23;;;14.10;;
55559;SDS011;41414;53.250;6.514;2022-11-20T06:12:48;22.40;;;13.35;;
55559;SDS011;41414;53.250;6.514;2022-11-20T06:15:14;23.58;;;14.80;;
55559;SDS011;41414;53.250;6.514;2022-11-20T06:17:40;23.20;;;14.00;;
55559;SDS011;41414;53.250;6.514;2022-11-20T06:20:06;20.88;;;13.10;;
55559;SDS011;41414;53.250;6.514;2022-11-20T06:22:33;21.45;;;13.73;;
55559;SDS011;41414;53.250;6.514;2022-11-20T06:24:59;20.08;;;12.73;;
55559;SDS011;41414;53.250;6.514;2022-11-20T06:27:25;20.30;;;12.98;;
55559;SDS011;41414;53.250;6.514;2022-11-20T06:29:51;21.58;;;13.95;;
55559;SDS011;41414;53.250;6.514;2022-11-20T06:32:17;21.30;;;13.32;;
55559;SDS011;41414;53.250;6.514;2022-11-20T06:34:43;24.70;;;14.40;;
55559;SDS011;41414;53.250;6.514;2022-11-20T06:37:10;22.30;;;13.90;;
55559;SDS011;41414;53.250;6.514;2022-11-20T06:39:36;21.52;;;14.48;;
55559;SDS011;41414;53.250;6.514;2022-11-20T06:42:02;20.25;;;13.45;;
55559;SDS011;41414;53.250;6.514;2022-11-20T06:44:28;21.92;;;13.63;;
55559;SDS011;41414;53.250;6.514;2022-11-20T06:46:54;21.63;;;13.85;;
55559;SDS011;41414;53.250;6.514;2022-11-20T06:49:20;19.63;;;12.73;;
55559;SDS011;41414;53.250;6.514;2022-11-20T06:51:46;21.15;;;14.18;;
55559;SDS011;41414;53.250;6.514;2022-11-20T06:54:13;21.85;;;12.90;;
55559;SDS011;41414;53.250;6.514;2022-11-20T06:56:39;22.95;;;13.30;;
55559;SDS011;41414;53.250;6.514;2022-11-20T06:59:05;20.35;;;12.80;;
55559;SDS011;41414;53.250;6.514;2022-11-20T07:01:32;19.00;;;11.93;;
55559;SDS011;41414;53.250;6.514;2022-11-20T07:03:58;23.30;;;13.20;;
55559;SDS011;41414;53.250;6.514;2022-11-20T07:06:24;20.58;;;12.93;;
55559;SDS011;41414;53.250;6.514;2022-11-20T07:08:50;19.58;;;12.80;;
55559;SDS011;41414;53.250;6.514;2022-11-20T07:11:17;22.40;;;13.43;;
55559;SDS011;41414;53.250;6.514;2022-11-20T07:13:43;22.55;;;14.30;;
55559;SDS011;41414;53.250;6.514;2022-11-20T07:16:09;21.80;;;13.65;;
55559;SDS011;41414;53.250;6.514;2022-11-20T07:18:36;21.52;;;12.68;;
55559;SDS011;41414;53.250;6.514;2022-11-20T07:21:04;21.88;;;13.65;;
55559;SDS011;41414;53.250;6.514;2022-11-20T07:23:30;22.88;;;13.55;;
55559;SDS011;41414;53.250;6.514;2022-11-20T07:25:56;20.92;;;12.93;;
55559;SDS011;41414;53.250;6.514;2022-11-20T07:28:22;19.80;;;12.70;;
55559;SDS011;41414;53.250;6.514;2022-11-20T07:30:49;21.63;;;13.27;;
55559;SDS011;41414;53.250;6.514;2022-11-20T07:33:16;20.52;;;12.88;;
55559;SDS011;41414;53.250;6.514;2022-11-20T07:35:42;18.25;;;12.48;;
55559;SDS011;41414;53.250;6.514;2022-11-20T07:38:08;21.83;;;12.40;;
55559;SDS011;41414;53.250;6.514;2022-11-20T07:40:34;19.00;;;11.85;;
55559;SDS011;41414;53.250;6.514;2022-11-20T07:43:00;22.23;;;13.10;;
55559;SDS011;41414;53.250;6.514;2022-11-20T07:45:26;19.58;;;12.48;;
55559;SDS011;41414;53.250;6.514;2022-11-20T07:47:53;18.92;;;12.23;;
55559;SDS011;41414;53.250;6.514;2022-11-20T07:50:19;21.92;;;12.90;;
55559;SDS011;41414;53.250;6.514;2022-11-20T07:52:46;19.55;;;12.95;;
55559;SDS011;41414;53.250;6.514;2022-11-20T07:55:12;20.05;;;12.43;;
55559;SDS011;41414;53.250;6.514;2022-11-20T07:57:38;19.35;;;12.75;;
55559;SDS011;41414;53.250;6.514;2022-11-20T08:00:05;19.77;;;11.93;;
55559;SDS011;41414;53.250;6.514;2022-11-20T08:02:36;20.90;;;12.88;;
55559;SDS011;41414;53.250;6.514;2022-11-20T08:05:04;19.10;;;12.10;;
55559;SDS011;41414;53.250;6.514;2022-11-20T08:07:35;21.83;;;12.48;;
55559;SDS011;41414;53.250;6.514;2022-11-20T08:10:02;20.45;;;12.68;;
55559;SDS011;41414;53.250;6.514;2022-11-20T08:12:28;32.20;;;12.45;;
55559;SDS011;41414;53.250;6.514;2022-11-20T08:15:12;20.40;;;13.18;;
55559;SDS011;41414;53.250;6.514;2022-11-20T08:17:38;24.73;;;13.73;;
55559;SDS011;41414;53.250;6.514;2022-11-20T08:20:04;21.83;;;13.63;;
55559;SDS011;41414;53.250;6.514;2022-11-20T08:22:30;19.85;;;12.30;;
55559;SDS011;41414;53.250;6.514;2022-11-20T08:24:56;21.55;;;12.73;;
55559;SDS011;41414;53.250;6.514;2022-11-20T08:27:22;20.35;;;12.07;;
55559;SDS011;41414;53.250;6.514;2022-11-20T08:29:48;22.17;;;13.38;;
55559;SDS011;41414;53.250;6.514;2022-11-20T08:32:14;20.73;;;11.80;;
55559;SDS011;41414;53.250;6.514;2022-11-20T08:34:42;21.58;;;13.02;;
55559;SDS011;41414;53.250;6.514;2022-11-20T08:37:07;18.35;;;12.07;;
55559;SDS011;41414;53.250;6.514;2022-11-20T08:39:33;19.98;;;13.00;;
55559;SDS011;41414;53.250;6.514;2022-11-20T08:41:59;19.30;;;12.55;;
55559;SDS011;41414;53.250;6.514;2022-11-20T08:44:25;19.90;;;12.27;;
55559;SDS011;41414;53.250;6.514;2022-11-20T08:46:51;20.77;;;11.98;;
55559;SDS011;41414;53.250;6.514;2022-11-20T08:49:17;20.27;;;13.13;;
55559;SDS011;41414;53.250;6.514;2022-11-20T08:51:43;20.13;;;12.50;;
55559;SDS011;41414;53.250;6.514;2022-11-20T08:54:09;23.20;;;12.93;;
55559;SDS011;41414;53.250;6.514;2022-11-20T08:56:35;20.42;;;13.43;;
55559;SDS011;41414;53.250;6.514;2022-11-20T08:59:01;23.48;;;14.27;;
55559;SDS011;41414;53.250;6.514;2022-11-20T09:01:27;22.10;;;14.30;;
55559;SDS011;41414;53.250;6.514;2022-11-20T09:03:55;17.55;;;12.10;;
55559;SDS011;41414;53.250;6.514;2022-11-20T09:06:22;19.60;;;12.88;;
55559;SDS011;41414;53.250;6.514;2022-11-20T09:08:51;21.15;;;12.98;;
55559;SDS011;41414;53.250;6.514;2022-11-20T09:11:18;19.38;;;13.57;;
55559;SDS011;41414;53.250;6.514;2022-11-20T09:13:43;21.40;;;13.50;;
55559;SDS011;41414;53.250;6.514;2022-11-20T09:16:09;24.23;;;14.57;;
55559;SDS011;41414;53.250;6.514;2022-11-20T09:18:35;22.67;;;13.43;;
55559;SDS011;41414;53.250;6.514;2022-11-20T09:21:03;19.88;;;12.60;;
55559;SDS011;41414;53.250;6.514;2022-11-20T09:23:31;21.60;;;12.40;;
55559;SDS011;41414;53.250;6.514;2022-11-20T09:26:03;24.75;;;13.23;;
55559;SDS011;41414;53.250;6.514;2022-11-20T09:28:30;22.95;;;12.80;;
55559;SDS011;41414;53.250;6.514;2022-11-20T09:30:57;21.08;;;13.90;;
55559;SDS011;41414;53.250;6.514;2022-11-20T09:33:23;25.95;;;13.73;;
55559;SDS011;41414;53.250;6.514;2022-11-20T09:35:49;22.10;;;13.98;;
55559;SDS011;41414;53.250;6.514;2022-11-20T09:38:15;23.20;;;14.45;;
55559;SDS011;41414;53.250;6.514;2022-11-20T09:40:44;22.85;;;12.55;;
55559;SDS011;41414;53.250;6.514;2022-11-20T09:51:30;23.08;;;14.60;;
55559;SDS011;41414;53.250;6.514;2022-11-20T09:54:37;25.85;;;14.82;;
55559;SDS011;41414;53.250;6.514;2022-11-20T09:57:09;21.48;;;14.05;;
55559;SDS011;41414;53.250;6.514;2022-11-20T09:59:40;19.20;;;12.38;;
55559;SDS011;41414;53.250;6.514;2022-11-20T10:04:53;20.60;;;13.07;;
55559;SDS011;41414;53.250;6.514;2022-11-20T10:07:33;18.70;;;13.15;;
55559;SDS011;41414;53.250;6.514;2022-11-20T10:10:14;24.88;;;14.50;;
55559;SDS011;41414;53.250;6.514;2022-11-20T10:20:48;20.58;;;13.25;;
55559;SDS011;41414;53.250;6.514;2022-11-20T10:23:41;23.98;;;13.27;;
55559;SDS011;41414;53.250;6.514;2022-11-20T10:29:05;21.85;;;13.38;;
55559;SDS011;41414;53.250;6.514;2022-11-20T10:31:43;22.73;;;14.02;;
55559;SDS011;41414;53.250;6.514;2022-11-20T10:36:46;23.05;;;12.82;;
55559;SDS011;41414;53.250;6.514;2022-11-20T10:39:22;22.48;;;13.25;;
55559;SDS011;41414;53.250;6.514;2022-11-20T10:41:57;19.42;;;12.52;;
55559;SDS011;41414;53.250;6.514;2022-11-20T10:44:30;22.98;;;13.32;;
55559;SDS011;41414;53.250;6.514;2022-11-20T10:47:15;19.17;;;11.98;;
55559;SDS011;41414;53.250;6.514;2022-11-20T10:49:43;18.92;;;12.25;;
55559;SDS011;41414;53.250;6.514;2022-11-20T10:52:16;16.10;;;11.00;;
55559;SDS011;41414;53.250;6.514;2022-11-20T10:55:06;18.92;;;11.70;;
55559;SDS011;41414;53.250;6.514;2022-11-20T10:57:49;19.40;;;11.23;;
55559;SDS011;41414;53.250;6.514;2022-11-20T11:00:32;17.65;;;11.68;;
55559;SDS011;41414;53.250;6.514;2022-11-20T11:02:58;18.45;;;11.65;;
55559;SDS011;41414;53.250;6.514;2022-11-20T11:05:37;20.58;;;11.80;;
55559;SDS011;41414;53.250;6.514;2022-11-20T11:08:12;19.83;;;11.45;;
55559;SDS011;41414;53.250;6.514;2022-11-20T11:13:06;18.13;;;11.57;;
55559;SDS011;41414;53.250;6.514;2022-11-20T11:15:39;16.17;;;10.70;;
55559;SDS011;41414;53.250;6.514;2022-11-20T11:18:10;16.65;;;11.15;;
55559;SDS011;41414;53.250;6.514;2022-11-20T11:20:36;14.77;;;9.55;;
55559;SDS011;41414;53.250;6.514;2022-11-20T11:23:02;17.02;;;10.18;;
55559;SDS011;41414;53.250;6.514;2022-11-20T11:28:00;15.73;;;10.15;;
55559;SDS011;41414;53.250;6.514;2022-11-20T11:30:28;14.20;;;9.55;;
55559;SDS011;41414;53.250;6.514;2022-11-20T11:33:03;17.15;;;10.18;;
55559;SDS011;41414;53.250;6.514;2022-11-20T11:35:30;18.63;;;11.05;;
55559;SDS011;41414;53.250;6.514;2022-11-20T11:38:04;14.95;;;9.73;;
55559;SDS011;41414;53.250;6.514;2022-11-20T11:40:33;15.07;;;10.55;;
55559;SDS011;41414;53.250;6.514;2022-11-20T11:43:03;15.30;;;9.82;;
55559;SDS011;41414;53.250;6.514;2022-11-20T11:45:53;17.53;;;10.63;;
55559;SDS011;41414;53.250;6.514;2022-11-20T11:48:20;15.90;;;10.45;;
55559;SDS011;41414;53.250;6.514;2022-11-20T11:50:48;17.05;;;10.60;;
55559;SDS011;41414;53.250;6.514;2022-11-20T11:53:17;18.27;;;11.15;;
55559;SDS011;41414;53.250;6.514;2022-11-20T11:55:50;15.90;;;9.85;;
55559;SDS011;41414;53.250;6.514;2022-11-20T12:00:54;15.07;;;9.77;;
55559;SDS011;41414;53.250;6.514;2022-11-20T12:03:29;18.70;;;10.68;;
55559;SDS011;41414;53.250;6.514;2022-11-20T12:05:59;16.05;;;10.27;;
55559;SDS011;41414;53.250;6.514;2022-11-20T12:11:05;14.18;;;8.75;;
55559;SDS011;41414;53.250;6.514;2022-11-20T12:13:50;12.48;;;8.32;;
55559;SDS011;41414;53.250;6.514;2022-11-20T12:16:30;11.95;;;7.38;;
55559;SDS011;41414;53.250;6.514;2022-11-20T12:19:00;10.40;;;6.65;;
55559;SDS011;41414;53.250;6.514;2022-11-20T12:21:31;9.57;;;6.53;;
55559;SDS011;41414;53.250;6.514;2022-11-20T12:27:02;12.02;;;7.28;;
55559;SDS011;41414;53.250;6.514;2022-11-20T12:29:54;10.25;;;6.43;;
55559;SDS011;41414;53.250;6.514;2022-11-20T12:32:30;9.13;;;5.95;;
55559;SDS011;41414;53.250;6.514;2022-11-20T12:35:23;7.75;;;5.55;;
55559;SDS011;41414;53.250;6.514;2022-11-20T12:43:27;8.65;;;5.00;;
55559;SDS011;41414;53.250;6.514;2022-11-20T12:46:24;6.88;;;4.88;;
55559;SDS011;41414;53.250;6.514;2022-11-20T12:49:01;10.10;;;6.15;;
55559;SDS011;41414;53.250;6.514;2022-11-20T12:51:39;8.35;;;5.28;;
55559;SDS011;41414;53.250;6.514;2022-11-20T12:54:22;7.88;;;5.45;;
55559;SDS011;41414;53.250;6.514;2022-11-20T12:57:03;8.63;;;5.57;;
55559;SDS011;41414;53.250;6.514;2022-11-20T12:59:48;8.50;;;5.63;;
55559;SDS011;41414;53.250;6.514;2022-11-20T13:02:33;9.02;;;5.97;;
55559;SDS011;41414;53.250;6.514;2022-11-20T13:05:19;7.18;;;5.13;;
55559;SDS011;41414;53.250;6.514;2022-11-20T13:07:50;8.75;;;5.40;;
55559;SDS011;41414;53.250;6.514;2022-11-20T13:10:37;7.68;;;5.70;;
55559;SDS011;41414;53.250;6.514;2022-11-20T13:13:14;8.20;;;5.70;;
55559;SDS011;41414;53.250;6.514;2022-11-20T13:15:48;7.85;;;5.20;;
55559;SDS011;41414;53.250;6.514;2022-11-20T13:18:21;7.90;;;5.20;;
55559;SDS011;41414;53.250;6.514;2022-11-20T13:20:47;11.13;;;6.38;;
55559;SDS011;41414;53.250;6.514;2022-11-20T13:23:24;10.65;;;6.40;;
55559;SDS011;41414;53.250;6.514;2022-11-20T13:25:52;8.75;;;6.10;;
55559;SDS011;41414;53.250;6.514;2022-11-20T13:28:30;9.55;;;5.70;;
55559;SDS011;41414;53.250;6.514;2022-11-20T13:30:56;9.30;;;6.43;;
55559;SDS011;41414;53.250;6.514;2022-11-20T13:33:30;11.27;;;6.97;;
55559;SDS011;41414;53.250;6.514;2022-11-20T13:36:02;10.73;;;6.40;;
55559;SDS011;41414;53.250;6.514;2022-11-20T13:41:09;9.88;;;6.80;;
55559;SDS011;41414;53.250;6.514;2022-11-20T13:43:54;11.00;;;7.13;;
55559;SDS011;41414;53.250;6.514;2022-11-20T13:46:36;12.63;;;7.30;;
55559;SDS011;41414;53.250;6.514;2022-11-20T13:49:06;10.68;;;7.35;;
55559;SDS011;41414;53.250;6.514;2022-11-20T13:56:43;12.13;;;7.88;;
55559;SDS011;41414;53.250;6.514;2022-11-20T14:01:55;13.90;;;7.72;;
55559;SDS011;41414;53.250;6.514;2022-11-20T14:04:29;10.98;;;7.60;;
55559;SDS011;41414;53.250;6.514;2022-11-20T14:07:00;12.40;;;7.55;;
55559;SDS011;41414;53.250;6.514;2022-11-20T14:09:31;11.82;;;7.43;;
55559;SDS011;41414;53.250;6.514;2022-11-20T14:11:59;12.57;;;7.65;;
55559;SDS011;41414;53.250;6.514;2022-11-20T14:14:27;11.60;;;7.57;;
55559;SDS011;41414;53.250;6.514;2022-11-20T14:17:07;12.25;;;8.25;;
55559;SDS011;41414;53.250;6.514;2022-11-20T14:19:42;11.38;;;7.60;;
55559;SDS011;41414;53.250;6.514;2022-11-20T14:22:19;10.63;;;7.07;;
55559;SDS011;41414;53.250;6.514;2022-11-20T14:24:48;12.80;;;7.68;;
55559;SDS011;41414;53.250;6.514;2022-11-20T14:27:25;14.15;;;8.23;;
55559;SDS011;41414;53.250;6.514;2022-11-20T14:29:51;11.95;;;8.15;;
55559;SDS011;41414;53.250;6.514;2022-11-20T14:32:17;12.63;;;8.18;;
55559;SDS011;41414;53.250;6.514;2022-11-20T14:34:46;13.43;;;7.53;;
55559;SDS011;41414;53.250;6.514;2022-11-20T14:37:17;16.20;;;8.73;;
55559;SDS011;41414;53.250;6.514;2022-11-20T14:39:51;14.07;;;8.13;;
55559;SDS011;41414;53.250;6.514;2022-11-20T14:42:20;11.75;;;8.25;;
55559;SDS011;41414;53.250;6.514;2022-11-20T14:44:48;15.45;;;8.77;;
55559;SDS011;41414;53.250;6.514;2022-11-20T14:47:17;13.63;;;9.15;;
55559;SDS011;41414;53.250;6.514;2022-11-20T14:49:46;15.57;;;9.32;;
55559;SDS011;41414;53.250;6.514;2022-11-20T14:52:16;14.13;;;8.55;;
55559;SDS011;41414;53.250;6.514;2022-11-20T14:54:50;14.45;;;8.68;;
55559;SDS011;41414;53.250;6.514;2022-11-20T14:57:25;13.48;;;8.88;;
55559;SDS011;41414;53.250;6.514;2022-11-20T15:00:24;13.95;;;8.63;;
55559;SDS011;41414;53.250;6.514;2022-11-20T15:02:41;15.07;;;8.82;;
55559;SDS011;41414;53.250;6.514;2022-11-20T15:05:08;12.52;;;8.23;;
55559;SDS011;41414;53.250;6.514;2022-11-20T15:07:35;14.07;;;9.50;;
55559;SDS011;41414;53.250;6.514;2022-11-20T15:10:07;16.67;;;8.68;;
55559;SDS011;41414;53.250;6.514;2022-11-20T15:12:40;12.13;;;8.63;;
55559;SDS011;41414;53.250;6.514;2022-11-20T15:15:15;14.18;;;8.80;;
55559;SDS011;41414;53.250;6.514;2022-11-20T15:17:45;12.75;;;8.52;;
55559;SDS011;41414;53.250;6.514;2022-11-20T15:20:13;14.32;;;8.60;;
55559;SDS011;41414;53.250;6.514;2022-11-20T15:22:41;13.88;;;9.25;;
55559;SDS011;41414;53.250;6.514;2022-11-20T15:25:12;14.93;;;9.25;;
55559;SDS011;41414;53.250;6.514;2022-11-20T15:27:41;13.38;;;8.63;;
55559;SDS011;41414;53.250;6.514;2022-11-20T15:30:12;12.43;;;8.45;;
55559;SDS011;41414;53.250;6.514;2022-11-20T15:32:42;14.77;;;9.27;;
55559;SDS011;41414;53.250;6.514;2022-11-20T15:35:09;14.55;;;9.43;;